createdAt,value
2017-09-28T00:00:13.341Z,13
2017-09-28T00:01:12.397Z,13
2017-09-28T00:04:09.475Z,12.9
2017-09-28T00:05:09.156Z,12.9
2017-09-28T00:06:08.454Z,12.9
2017-09-28T00:07:07.501Z,12.9
2017-09-28T00:08:06.801Z,12.9
2017-09-28T00:09:06.237Z,12.9
2017-09-28T00:09:36.473Z,12.9
2017-09-28T00:11:04.335Z,12.9
2017-09-28T00:13:02.896Z,12.8
2017-09-28T00:14:02.207Z,12.8
2017-09-28T00:15:01.257Z,12.8
2017-09-28T00:16:59.441Z,12.8
2017-09-28T00:17:59.246Z,12.8
2017-09-28T00:18:58.424Z,12.8
2017-09-28T00:20:56.611Z,12.8
2017-09-28T00:22:54.672Z,12.7
2017-09-28T00:23:54.103Z,12.7
2017-09-28T00:24:53.537Z,12.7
2017-09-28T00:25:52.343Z,12.7
2017-09-28T00:26:51.522Z,12.7
2017-09-28T00:27:50.949Z,12.7
2017-09-28T00:28:50.133Z,12.7
2017-09-28T00:31:47.828Z,12.7
2017-09-28T00:32:46.883Z,12.7
2017-09-28T00:33:46.437Z,12.6
2017-09-28T00:34:45.471Z,12.6
2017-09-28T00:35:44.775Z,12.6
2017-09-28T00:36:15.273Z,12.6
2017-09-28T00:38:42.149Z,12.6
2017-09-28T00:39:41.328Z,12.6
2017-09-28T00:40:41.130Z,12.6
2017-09-28T00:41:40.043Z,12.6
2017-09-28T00:42:39.112Z,12.6
2017-09-28T00:43:38.290Z,12.6
2017-09-28T00:44:37.601Z,12.5
2017-09-28T00:45:36.905Z,12.6
2017-09-28T00:47:35.346Z,12.5
2017-09-28T00:48:34.404Z,12.6
2017-09-28T00:49:33.462Z,12.5
2017-09-28T00:50:33.025Z,12.5
2017-09-28T00:51:32.199Z,12.5
2017-09-28T00:53:30.642Z,12.5
2017-09-28T00:54:29.444Z,12.5
2017-09-28T00:55:00.056Z,12.5
2017-09-28T00:55:30.299Z,12.5
2017-09-28T00:56:00.665Z,12.5
2017-09-28T00:57:27.266Z,12.5
2017-09-28T00:58:26.317Z,12.5
2017-09-28T00:59:25.999Z,12.5
2017-09-28T01:00:25.056Z,12.5
2017-09-28T01:02:23.244Z,12.5
2017-09-28T01:03:22.295Z,12.5
2017-09-28T01:04:21.606Z,12.5
2017-09-28T01:05:20.790Z,12.4
2017-09-28T01:06:19.839Z,12.4
2017-09-28T01:07:19.405Z,12.5
2017-09-28T01:09:17.962Z,12.4
2017-09-28T01:10:16.768Z,12.4
2017-09-28T01:11:16.317Z,12.4
2017-09-28T02:59:10.041Z,12.1
2017-09-28T03:00:47.357Z,12
2017-09-28T03:01:46.552Z,11.9
2017-09-28T03:02:45.794Z,11.9
2017-09-28T03:03:45.350Z,11.9
2017-09-28T03:04:44.293Z,11.9
2017-09-28T03:09:40.015Z,11.8
2017-09-28T03:10:39.451Z,11.8
2017-09-28T03:12:38.032Z,11.8
2017-09-28T03:13:37.220Z,11.8
2017-09-28T03:17:33.556Z,11.8
2017-09-28T03:19:32.008Z,11.8
2017-09-28T03:20:31.199Z,11.7
2017-09-28T03:21:30.646Z,11.7
2017-09-28T03:22:29.958Z,11.7
2017-09-28T03:23:29.140Z,11.7
2017-09-28T03:24:27.971Z,11.7
2017-09-28T03:25:27.154Z,11.7
2017-09-28T03:26:26.602Z,11.7
2017-09-28T03:29:24.453Z,11.7
2017-09-28T03:30:23.394Z,11.6
2017-09-28T03:32:21.469Z,11.7
2017-09-28T03:33:21.032Z,11.6
2017-09-28T03:35:18.977Z,11.6
2017-09-28T03:36:18.666Z,11.6
2017-09-28T03:37:17.732Z,11.6
2017-09-28T03:38:17.045Z,11.6
2017-09-28T03:39:15.728Z,11.6
2017-09-28T03:41:14.452Z,11.6
2017-09-28T03:42:13.775Z,11.6
2017-09-28T03:43:12.579Z,11.6
2017-09-28T03:44:12.023Z,11.6
2017-09-28T03:47:09.350Z,11.5
2017-09-28T03:50:07.202Z,11.5
2017-09-28T03:51:06.260Z,11.5
2017-09-28T03:52:05.452Z,11.5
2017-09-28T03:57:01.178Z,11.5
2017-09-28T04:05:53.956Z,11.4
2017-09-28T04:08:51.546Z,11.4
2017-09-28T04:09:50.481Z,11.4
2017-09-28T04:10:50.178Z,11.4
2017-09-28T04:11:49.240Z,11.3
2017-09-28T04:14:46.566Z,11.3
2017-09-28T04:15:45.622Z,11.3
2017-09-28T04:16:44.937Z,11.3
2017-09-28T04:17:44.009Z,11.3
2017-09-28T04:18:43.322Z,11.3
2017-09-28T04:19:42.509Z,11.3
2017-09-28T04:20:41.831Z,11.3
2017-09-28T04:23:39.546Z,11.3
2017-09-28T04:25:37.631Z,11.3
2017-09-28T04:26:36.692Z,11.3
2017-09-28T04:27:35.998Z,11.3
2017-09-28T04:28:35.194Z,11.3
2017-09-28T04:29:34.767Z,11.3
2017-09-28T04:30:33.452Z,11.3
2017-09-28T04:31:32.522Z,11.2
2017-09-28T04:32:31.968Z,11.2
2017-09-28T04:33:31.157Z,11.2
2017-09-28T04:34:01.789Z,11.2
2017-09-28T04:34:32.293Z,11.2
2017-09-28T04:35:29.723Z,11.2
2017-09-28T04:39:26.443Z,11.2
2017-09-28T04:41:24.772Z,11.2
2017-09-28T04:43:22.840Z,11.2
2017-09-28T04:43:53.092Z,11.2
2017-09-28T04:45:21.342Z,11.2
2017-09-28T04:46:20.780Z,11.1
2017-09-28T04:47:19.717Z,11.1
2017-09-28T04:50:17.421Z,11.1
2017-09-28T04:51:16.237Z,11.1
2017-09-28T04:52:15.551Z,11.1
2017-09-28T04:54:13.622Z,11.1
2017-09-28T04:55:12.809Z,11
2017-09-28T04:56:12.386Z,11
2017-09-28T04:57:11.322Z,11
2017-09-28T04:59:09.515Z,11
2017-09-28T05:00:08.867Z,11
2017-09-28T05:01:08.177Z,11
2017-09-28T05:02:07.494Z,11
2017-09-28T05:03:06.680Z,11
2017-09-28T05:04:05.868Z,11
2017-09-28T05:05:05.061Z,11
2017-09-28T05:06:04.118Z,11
2017-09-28T05:07:03.429Z,11
2017-09-28T05:08:02.368Z,11
2017-09-28T05:09:01.695Z,11
2017-09-28T05:10:00.749Z,10.9
2017-09-28T05:10:59.937Z,10.9
2017-09-28T05:12:58.128Z,10.9
2017-09-28T05:13:57.312Z,10.9
2017-09-28T05:14:56.750Z,11
2017-09-28T05:15:55.562Z,10.9
2017-09-28T05:16:54.874Z,10.9
2017-09-28T05:17:54.070Z,10.9
2017-09-28T05:18:52.883Z,11
2017-09-28T05:19:52.332Z,11
2017-09-28T05:21:50.537Z,10.9
2017-09-28T05:22:50.240Z,10.9
2017-09-28T05:23:48.801Z,10.9
2017-09-28T05:24:48.368Z,10.9
2017-09-28T05:25:18.872Z,10.9
2017-09-28T05:25:49.124Z,10.9
2017-09-28T05:26:19.380Z,10.9
2017-09-28T05:26:49.623Z,10.9
2017-09-28T05:27:20.265Z,10.9
2017-09-28T05:28:44.995Z,10.9
2017-09-28T05:30:43.062Z,10.9
2017-09-28T05:31:42.255Z,10.9
2017-09-28T05:32:41.697Z,10.9
2017-09-28T05:33:41.008Z,10.9
2017-09-28T05:34:40.337Z,10.9
2017-09-28T05:35:39.280Z,10.9
2017-09-28T05:36:09.906Z,10.9
2017-09-28T05:36:40.409Z,10.9
2017-09-28T05:37:10.921Z,10.9
2017-09-28T05:38:36.659Z,10.9
2017-09-28T05:43:32.387Z,10.9
2017-09-28T05:44:31.702Z,10.9
2017-09-28T05:45:31.018Z,10.9
2017-09-28T05:49:27.733Z,10.9
2017-09-28T05:50:26.671Z,10.9
2017-09-28T05:51:25.647Z,10.9
2017-09-28T05:53:24.355Z,10.9
2017-09-28T05:55:22.558Z,10.9
2017-09-28T05:56:21.618Z,10.9
2017-09-28T05:57:20.808Z,10.9
2017-09-28T05:58:19.999Z,10.9
2017-09-28T06:00:18.188Z,11
2017-09-28T06:02:16.762Z,11
2017-09-28T06:03:16.083Z,11
2017-09-28T06:05:14.406Z,11
2017-09-28T06:06:13.601Z,11.1
2017-09-28T06:07:12.409Z,11.1
2017-09-28T06:07:42.906Z,11.1
2017-09-28T06:08:13.277Z,11.1
2017-09-28T06:09:11.335Z,11.1
2017-09-28T06:10:10.271Z,11.1
2017-09-28T06:11:09.586Z,11.1
2017-09-28T06:12:08.140Z,11.1
2017-09-28T06:13:07.330Z,11.1
2017-09-28T06:14:06.770Z,11.1
2017-09-28T06:15:05.963Z,11.2
2017-09-28T06:16:05.286Z,11.2
2017-09-28T06:17:04.727Z,11.2
2017-09-28T06:17:35.229Z,11.2
2017-09-28T06:19:02.606Z,11.2
2017-09-28T06:21:01.057Z,11.2
2017-09-28T06:22:00.373Z,11.3
2017-09-28T06:23:58.578Z,11.3
2017-09-28T06:24:57.516Z,11.3
2017-09-28T06:25:56.698Z,11.3
2017-09-28T06:27:55.402Z,11.3
2017-09-28T06:28:54.464Z,11.4
2017-09-28T06:29:53.654Z,11.4
2017-09-28T06:30:52.727Z,11.4
2017-09-28T06:31:51.932Z,11.4
2017-09-28T06:32:51.242Z,11.5
2017-09-28T06:33:50.042Z,11.5
2017-09-28T06:34:49.480Z,11.5
2017-09-28T06:36:47.427Z,11.5
2017-09-28T06:37:46.981Z,11.6
2017-09-28T06:38:46.164Z,11.6
2017-09-28T06:40:44.365Z,11.7
2017-09-28T06:42:42.572Z,11.7
2017-09-28T06:44:41.269Z,11.8
2017-09-28T06:45:40.469Z,11.8
2017-09-28T06:46:39.404Z,11.8
2017-09-28T06:47:38.590Z,11.9
2017-09-28T06:48:38.033Z,11.9
2017-09-28T06:49:36.838Z,11.9
2017-09-28T06:50:36.152Z,11.9
2017-09-28T06:52:34.853Z,12
2017-09-28T06:53:33.546Z,12
2017-09-28T06:54:32.767Z,12
2017-09-28T06:55:32.216Z,12
2017-09-28T06:56:31.407Z,12
2017-09-28T06:57:30.592Z,12.1
2017-09-28T06:58:29.533Z,12.1
2017-09-28T06:59:28.983Z,12.1
2017-09-28T07:00:28.171Z,12.1
2017-09-28T07:01:27.235Z,12.2
2017-09-28T07:02:26.423Z,12.2
2017-09-28T07:02:56.685Z,12.2
2017-09-28T07:03:27.191Z,12.2
2017-09-28T07:03:57.693Z,12.2
2017-09-28T07:05:24.184Z,12.2
2017-09-28T07:06:23.259Z,12.2
2017-09-28T07:07:22.317Z,12.3
2017-09-28T07:09:20.634Z,12.3
2017-09-28T07:10:19.821Z,12.3
2017-09-28T07:11:19.147Z,12.4
2017-09-28T07:13:17.597Z,12.4
2017-09-28T07:13:48.226Z,12.4
2017-09-28T07:14:18.980Z,12.5
2017-09-28T07:14:49.102Z,12.5
2017-09-28T07:16:14.966Z,12.6
2017-09-28T07:17:13.910Z,12.6
2017-09-28T07:18:13.351Z,12.6
2017-09-28T07:19:12.539Z,12.7
2017-09-28T07:20:11.476Z,12.7
2017-09-28T07:21:10.791Z,12.7
2017-09-28T07:22:09.969Z,12.8
2017-09-28T07:23:09.153Z,12.8
2017-09-28T07:24:08.475Z,12.9
2017-09-28T07:25:07.791Z,13
2017-09-28T07:26:06.602Z,13
2017-09-28T07:27:05.916Z,13.1
2017-09-28T07:28:04.983Z,13.1
2017-09-28T07:29:04.430Z,13.2
2017-09-28T07:30:03.748Z,13.3
2017-09-28T07:31:02.808Z,13.3
2017-09-28T07:32:02.122Z,13.4
2017-09-28T07:33:00.933Z,13.4
2017-09-28T07:34:00.123Z,13.4
2017-09-28T07:34:59.185Z,13.5
2017-09-28T07:35:58.636Z,13.5
2017-09-28T07:36:58.199Z,13.6
2017-09-28T07:37:56.766Z,13.6
2017-09-28T07:39:55.471Z,13.7
2017-09-28T07:40:54.779Z,13.7
2017-09-28T07:41:53.846Z,13.8
2017-09-28T07:42:24.350Z,13.8
2017-09-28T07:42:54.876Z,13.8
2017-09-28T07:43:25.383Z,13.8
2017-09-28T07:43:55.640Z,13.9
2017-09-28T07:44:26.135Z,13.9
2017-09-28T07:44:56.770Z,13.9
2017-09-28T07:45:27.275Z,13.9
2017-09-28T07:46:50.114Z,14
2017-09-28T07:47:49.307Z,14.1
2017-09-28T07:48:48.246Z,14.1
2017-09-28T07:49:47.562Z,14.1
2017-09-28T07:50:46.379Z,14.2
2017-09-28T07:51:45.695Z,14.2
2017-09-28T07:52:16.198Z,14.2
2017-09-28T07:52:46.826Z,14.2
2017-09-28T07:53:17.466Z,14.2
2017-09-28T07:53:47.596Z,14.3
2017-09-28T07:54:18.128Z,14.3
2017-09-28T07:54:48.724Z,14.3
2017-09-28T07:55:19.222Z,14.3
2017-09-28T07:55:49.848Z,14.3
2017-09-28T07:56:20.346Z,14.3
2017-09-28T07:59:39.445Z,14.4
2017-09-28T08:00:38.885Z,14.4
2017-09-28T08:01:38.074Z,14.4
2017-09-28T08:02:37.007Z,14.4
2017-09-28T08:03:36.323Z,14.5
2017-09-28T08:04:35.390Z,14.5
2017-09-28T08:05:34.702Z,14.5
2017-09-28T08:06:34.026Z,14.5
2017-09-28T08:07:33.467Z,14.5
2017-09-28T08:08:32.401Z,14.5
2017-09-28T08:09:31.713Z,14.5
2017-09-28T08:10:31.161Z,14.5
2017-09-28T08:11:30.359Z,14.5
2017-09-28T08:12:29.427Z,14.5
2017-09-28T08:13:28.485Z,14.5
2017-09-28T08:14:27.678Z,14.5
2017-09-28T08:15:27.132Z,14.5
2017-09-28T08:16:26.074Z,14.5
2017-09-28T08:17:25.393Z,14.5
2017-09-28T08:18:24.713Z,14.5
2017-09-28T08:19:24.028Z,14.6
2017-09-28T08:20:22.836Z,14.6
2017-09-28T08:21:22.404Z,14.6
2017-09-28T08:22:21.471Z,14.6
2017-09-28T08:23:20.528Z,14.6
2017-09-28T08:24:19.848Z,14.6
2017-09-28T08:24:50.480Z,14.6
2017-09-28T08:25:21.361Z,14.7
2017-09-28T08:26:18.548Z,14.7
2017-09-28T08:26:48.924Z,14.7
2017-09-28T08:27:19.550Z,14.7
2017-09-28T08:28:16.849Z,14.7
2017-09-28T08:29:16.165Z,14.8
2017-09-28T08:30:15.349Z,14.8
2017-09-28T08:31:14.786Z,14.8
2017-09-28T08:32:13.631Z,14.9
2017-09-28T08:33:13.195Z,14.9
2017-09-28T08:34:11.884Z,15
2017-09-28T08:35:11.703Z,15
2017-09-28T08:35:41.874Z,15
2017-09-28T08:36:12.253Z,15.1
2017-09-28T08:36:42.884Z,15.1
2017-09-28T08:37:13.138Z,15.1
2017-09-28T08:38:08.850Z,15.2
2017-09-28T08:39:08.039Z,15.2
2017-09-28T08:40:07.387Z,15.3
2017-09-28T08:41:06.954Z,15.3
2017-09-28T08:42:05.966Z,15.4
2017-09-28T08:43:05.270Z,15.4
2017-09-28T08:44:04.617Z,15.5
2017-09-28T08:45:03.936Z,15.5
2017-09-28T08:46:02.779Z,15.5
2017-09-28T08:47:02.358Z,15.6
2017-09-28T08:48:01.588Z,15.6
2017-09-28T08:49:00.526Z,15.6
2017-09-28T08:50:58.891Z,15.7
2017-09-28T08:51:58.380Z,15.7
2017-09-28T08:52:57.455Z,15.7
2017-09-28T08:53:56.679Z,15.8
2017-09-28T08:54:55.864Z,15.8
2017-09-28T08:55:55.351Z,15.8
2017-09-28T08:56:54.655Z,15.8
2017-09-28T08:57:53.751Z,15.9
2017-09-28T08:58:52.941Z,15.9
2017-09-28T08:59:52.175Z,15.9
2017-09-28T09:00:51.614Z,15.9
2017-09-28T09:01:51.214Z,16
2017-09-28T09:02:50.274Z,16
2017-09-28T09:03:49.379Z,16.1
2017-09-28T09:04:48.571Z,16.1
2017-09-28T09:05:47.918Z,16.2
2017-09-28T09:06:47.255Z,16.2
2017-09-28T09:07:46.357Z,16.2
2017-09-28T09:08:45.791Z,16.2
2017-09-28T09:09:44.513Z,16.3
2017-09-28T09:10:44.452Z,16.3
2017-09-28T09:11:43.177Z,16.3
2017-09-28T09:12:42.232Z,16.3
2017-09-28T09:13:41.706Z,16.4
2017-09-28T09:14:41.146Z,16.4
2017-09-28T09:15:40.256Z,16.4
2017-09-28T09:16:39.318Z,16.4
2017-09-28T09:17:38.672Z,16.4
2017-09-28T09:18:38.069Z,16.5
2017-09-28T09:19:37.545Z,16.5
2017-09-28T09:20:36.728Z,16.5
2017-09-28T09:21:36.072Z,16.5
2017-09-28T09:22:06.700Z,16.5
2017-09-28T09:22:37.322Z,16.5
2017-09-28T09:23:34.036Z,16.6
2017-09-28T09:24:33.731Z,16.6
2017-09-28T09:25:33.086Z,16.6
2017-09-28T09:26:31.786Z,16.7
2017-09-28T09:27:31.360Z,16.7
2017-09-28T09:28:30.715Z,16.7
2017-09-28T09:29:29.903Z,16.7
2017-09-28T09:30:28.878Z,16.7
2017-09-28T09:31:28.561Z,16.7
2017-09-28T09:31:59.097Z,16.7
2017-09-28T09:33:26.845Z,16.8
2017-09-28T09:34:26.072Z,16.8
2017-09-28T09:36:24.805Z,16.8
2017-09-28T09:37:23.874Z,16.8
2017-09-28T09:38:23.225Z,16.8
2017-09-28T09:39:22.418Z,16.9
2017-09-28T09:40:22.017Z,16.9
2017-09-28T09:41:21.087Z,16.9
2017-09-28T09:42:20.432Z,16.9
2017-09-28T09:43:19.747Z,16.9
2017-09-28T09:44:18.969Z,16.9
2017-09-28T09:45:18.283Z,16.9
2017-09-28T09:46:17.412Z,17
2017-09-28T09:47:16.855Z,17
2017-09-28T09:48:15.953Z,17
2017-09-28T09:49:15.173Z,17.1
2017-09-28T09:50:14.656Z,17.1
2017-09-28T09:51:13.846Z,17.1
2017-09-28T09:52:12.946Z,17.2
2017-09-28T09:53:12.263Z,17.2
2017-09-28T09:54:11.237Z,17.2
2017-09-28T09:55:10.921Z,17.2
2017-09-28T09:56:09.900Z,17.3
2017-09-28T09:57:09.467Z,17.3
2017-09-28T09:58:08.683Z,17.3
2017-09-28T09:59:08.254Z,17.4
2017-09-28T10:00:07.220Z,17.4
2017-09-28T10:01:06.404Z,17.4
2017-09-28T10:02:05.515Z,17.4
2017-09-28T10:02:36.020Z,17.4
2017-09-28T10:04:04.315Z,17.4
2017-09-28T10:05:03.633Z,17.4
2017-09-28T10:06:02.862Z,17.4
2017-09-28T10:07:01.918Z,17.4
2017-09-28T10:08:01.154Z,17.5
2017-09-28T10:09:00.974Z,17.5
2017-09-28T10:10:59.492Z,17.5
2017-09-28T10:11:58.347Z,17.6
2017-09-28T10:12:57.906Z,17.6
2017-09-28T10:13:28.409Z,17.6
2017-09-28T10:13:59.068Z,17.6
2017-09-28T10:14:29.697Z,17.6
2017-09-28T10:15:00.192Z,17.7
2017-09-28T10:15:30.696Z,17.7
2017-09-28T10:17:54.014Z,17.8
2017-09-28T10:18:53.707Z,17.8
2017-09-28T10:19:52.770Z,17.8
2017-09-28T10:20:51.830Z,17.9
2017-09-28T10:21:51.401Z,17.9
2017-09-28T10:22:50.836Z,17.9
2017-09-28T10:24:49.416Z,17.9
2017-09-28T10:25:19.544Z,17.9
2017-09-28T10:25:50.177Z,18
2017-09-28T10:26:20.947Z,18
2017-09-28T10:26:51.355Z,18
2017-09-28T10:27:47.394Z,18
2017-09-28T10:28:46.195Z,18
2017-09-28T10:29:45.517Z,18
2017-09-28T10:30:44.705Z,18
2017-09-28T10:31:44.392Z,18
2017-09-28T10:32:43.836Z,18
2017-09-28T10:33:43.162Z,18.1
2017-09-28T10:34:42.224Z,18.1
2017-09-28T10:35:41.414Z,18.1
2017-09-28T10:36:40.993Z,18.1
2017-09-28T10:37:40.062Z,18.1
2017-09-28T10:38:39.383Z,18.1
2017-09-28T10:39:38.575Z,18.2
2017-09-28T10:40:37.642Z,18.2
2017-09-28T10:41:37.336Z,18.2
2017-09-28T10:42:36.915Z,18.2
2017-09-28T10:43:35.599Z,18.2
2017-09-28T10:44:34.915Z,18.2
2017-09-28T10:45:34.483Z,18.3
2017-09-28T10:46:33.541Z,18.3
2017-09-28T10:47:33.109Z,18.3
2017-09-28T10:48:32.300Z,18.3
2017-09-28T10:49:31.462Z,18.3
2017-09-28T10:50:31.170Z,18.4
2017-09-28T10:51:30.337Z,18.4
2017-09-28T10:52:29.778Z,18.4
2017-09-28T10:53:28.532Z,18.4
2017-09-28T10:54:27.974Z,18.4
2017-09-28T10:55:27.228Z,18.5
2017-09-28T10:56:26.669Z,18.5
2017-09-28T10:56:57.422Z,18.5
2017-09-28T10:58:25.227Z,18.5
2017-09-28T10:59:24.545Z,18.5
2017-09-28T11:00:24.538Z,18.5
2017-09-28T11:01:23.482Z,18.6
2017-09-28T11:02:22.792Z,18.6
2017-09-28T11:03:21.783Z,18.6
2017-09-28T11:04:21.103Z,18.6
2017-09-28T11:05:20.303Z,18.6
2017-09-28T11:06:20.114Z,18.7
2017-09-28T11:07:19.099Z,18.7
2017-09-28T11:07:49.601Z,18.7
2017-09-28T11:08:19.847Z,18.7
2017-09-28T11:09:17.957Z,18.7
2017-09-28T11:10:17.023Z,18.7
2017-09-28T11:11:16.382Z,18.7
2017-09-28T11:12:15.566Z,18.7
2017-09-28T11:14:14.572Z,18.8
2017-09-28T11:15:13.685Z,18.8
2017-09-28T11:16:12.996Z,18.8
2017-09-28T11:17:12.190Z,18.8
2017-09-28T11:18:11.530Z,18.8
2017-09-28T11:19:10.593Z,18.8
2017-09-28T11:20:10.172Z,18.8
2017-09-28T11:21:09.614Z,18.8
2017-09-28T11:22:08.603Z,18.8
2017-09-28T11:23:08.175Z,18.8
2017-09-28T11:24:07.137Z,18.9
2017-09-28T11:25:06.713Z,18.9
2017-09-28T11:26:06.072Z,18.9
2017-09-28T11:27:05.012Z,18.9
2017-09-28T11:28:04.506Z,18.9
2017-09-28T11:29:03.945Z,18.9
2017-09-28T11:30:03.393Z,18.9
2017-09-28T11:31:02.707Z,18.9
2017-09-28T11:32:02.159Z,18.9
2017-09-28T11:33:01.112Z,18.9
2017-09-28T11:34:00.440Z,18.9
2017-09-28T11:35:59.149Z,18.9
2017-09-28T11:36:58.455Z,18.9
2017-09-28T11:37:57.793Z,18.9
2017-09-28T11:38:57.230Z,18.9
2017-09-28T11:39:56.583Z,18.9
2017-09-28T11:40:55.774Z,19
2017-09-28T11:41:55.100Z,19
2017-09-28T11:42:54.288Z,19
2017-09-28T11:43:53.739Z,19.1
2017-09-28T11:44:52.801Z,19.1
2017-09-28T11:45:52.517Z,19.1
2017-09-28T11:46:51.577Z,19.1
2017-09-28T11:47:50.902Z,19.1
2017-09-28T11:48:50.220Z,19.2
2017-09-28T11:49:49.337Z,19.2
2017-09-28T11:50:49.150Z,19.2
2017-09-28T11:51:48.507Z,19.2
2017-09-28T11:52:47.570Z,19.2
2017-09-28T11:53:46.893Z,19.2
2017-09-28T11:54:46.089Z,19.2
2017-09-28T11:55:45.403Z,19.3
2017-09-28T11:56:44.593Z,19.3
2017-09-28T11:57:44.548Z,19.3
2017-09-28T11:58:43.609Z,19.3
2017-09-28T11:59:43.081Z,19.3
2017-09-28T12:00:42.392Z,19.3
2017-09-28T12:01:41.334Z,19.3
2017-09-28T12:02:40.893Z,19.3
2017-09-28T12:03:40.334Z,19.3
2017-09-28T12:04:39.398Z,19.3
2017-09-28T12:05:38.595Z,19.3
2017-09-28T12:06:38.293Z,19.3
2017-09-28T12:07:37.771Z,19.3
2017-09-28T12:08:07.894Z,19.3
2017-09-28T12:08:38.014Z,19.3
2017-09-28T12:09:36.323Z,19.3
2017-09-28T12:10:35.520Z,19.3
2017-09-28T12:11:34.698Z,19.3
2017-09-28T12:12:34.023Z,19.3
2017-09-28T12:13:33.848Z,19.3
2017-09-28T12:14:32.795Z,19.3
2017-09-28T12:15:31.862Z,19.3
2017-09-28T12:16:31.852Z,19.3
2017-09-28T12:17:31.171Z,19.3
2017-09-28T12:18:30.109Z,19.3
2017-09-28T12:19:29.293Z,19.3
2017-09-28T12:20:28.610Z,19.3
2017-09-28T12:21:27.930Z,19.3
2017-09-28T12:22:27.252Z,19.3
2017-09-28T12:23:26.576Z,19.3
2017-09-28T12:24:25.777Z,19.3
2017-09-28T12:25:25.722Z,19.3
2017-09-28T12:26:24.669Z,19.3
2017-09-28T12:27:24.108Z,19.4
2017-09-28T12:28:23.211Z,19.4
2017-09-28T12:29:22.401Z,19.3
2017-09-28T12:30:22.183Z,19.3
2017-09-28T12:31:21.248Z,19.3
2017-09-28T12:32:20.837Z,19.4
2017-09-28T12:33:19.769Z,19.4
2017-09-28T12:34:19.220Z,19.4
2017-09-28T12:35:18.785Z,19.4
2017-09-28T12:36:18.361Z,19.4
2017-09-28T12:38:16.687Z,19.4
2017-09-28T12:39:15.878Z,19.4
2017-09-28T12:40:15.337Z,19.5
2017-09-28T12:41:14.908Z,19.5
2017-09-28T12:42:13.974Z,19.5
2017-09-28T12:44:12.428Z,19.5
2017-09-28T12:45:12.250Z,19.5
2017-09-28T12:46:11.115Z,19.5
2017-09-28T12:47:11.059Z,19.5
2017-09-28T12:48:10.291Z,19.5
2017-09-28T12:49:09.479Z,19.5
2017-09-28T12:50:08.616Z,19.5
2017-09-28T12:51:08.047Z,19.5
2017-09-28T12:52:07.489Z,19.5
2017-09-28T12:53:06.927Z,19.5
2017-09-28T12:54:06.254Z,19.6
2017-09-28T12:55:05.324Z,19.6
2017-09-28T12:56:04.902Z,19.6
2017-09-28T12:57:04.220Z,19.7
2017-09-28T12:58:03.791Z,19.7
2017-09-28T12:59:02.854Z,19.7
2017-09-28T13:00:02.302Z,19.8
2017-09-28T13:01:01.238Z,19.8
2017-09-28T13:02:00.822Z,19.8
2017-09-28T13:03:00.019Z,19.8
2017-09-28T13:03:59.216Z,19.9
2017-09-28T13:04:58.777Z,19.9
2017-09-28T13:05:57.981Z,19.9
2017-09-28T13:06:57.805Z,19.9
2017-09-28T13:07:56.622Z,20
2017-09-28T13:08:56.063Z,20
2017-09-28T13:09:55.267Z,20
2017-09-28T13:10:55.088Z,20
2017-09-28T13:11:54.033Z,20
2017-09-28T13:12:53.727Z,20
2017-09-28T13:13:53.041Z,20
2017-09-28T13:14:52.243Z,20
2017-09-28T13:15:51.587Z,20
2017-09-28T13:16:51.048Z,20
2017-09-28T13:17:50.489Z,20
2017-09-28T13:18:49.211Z,20
2017-09-28T13:19:49.035Z,20
2017-09-28T13:20:48.480Z,20
2017-09-28T13:21:47.924Z,20
2017-09-28T13:22:46.866Z,20
2017-09-28T13:23:46.432Z,19.9
2017-09-28T13:24:45.502Z,20
2017-09-28T13:25:45.074Z,19.9
2017-09-28T13:26:44.265Z,19.9
2017-09-28T13:27:43.458Z,19.9
2017-09-28T13:28:42.964Z,19.9
2017-09-28T13:29:42.283Z,19.9
2017-09-28T13:30:41.491Z,19.9
2017-09-28T13:31:40.678Z,19.9
2017-09-28T13:32:40.627Z,19.9
2017-09-28T13:33:39.690Z,19.9
2017-09-28T13:34:39.016Z,19.8
2017-09-28T13:35:38.076Z,19.8
2017-09-28T13:36:38.030Z,19.8
2017-09-28T13:37:37.088Z,19.8
2017-09-28T13:38:36.544Z,19.8
2017-09-28T13:40:35.513Z,19.7
2017-09-28T13:41:34.323Z,19.7
2017-09-28T13:42:33.947Z,19.7
2017-09-28T13:43:32.876Z,19.7
2017-09-28T13:44:32.226Z,19.6
2017-09-28T13:45:31.789Z,19.6
2017-09-28T13:46:02.428Z,19.6
2017-09-28T13:46:33.054Z,19.6
2017-09-28T13:47:03.431Z,19.6
2017-09-28T13:48:29.850Z,19.5
2017-09-28T13:49:29.416Z,19.5
2017-09-28T13:50:28.738Z,19.5
2017-09-28T13:51:27.797Z,19.5
2017-09-28T13:52:27.382Z,19.4
2017-09-28T13:53:26.656Z,19.4
2017-09-28T13:54:25.997Z,19.4
2017-09-28T13:55:25.319Z,19.4
2017-09-28T13:56:24.527Z,19.4
2017-09-28T13:56:54.667Z,19.4
2017-09-28T13:57:25.290Z,19.3
2017-09-28T13:57:55.285Z,19.3
2017-09-28T13:59:22.667Z,19.3
2017-09-28T14:00:22.268Z,19.3
2017-09-28T14:01:21.208Z,19.2
2017-09-28T14:03:20.041Z,19.2
2017-09-28T14:04:19.500Z,19.2
2017-09-28T14:05:18.446Z,19.2
2017-09-28T14:06:17.899Z,19.2
2017-09-28T14:07:17.469Z,19.1
2017-09-28T14:08:16.841Z,19.1
2017-09-28T14:09:15.781Z,19.1
2017-09-28T14:10:15.139Z,19.1
2017-09-28T14:11:14.835Z,19.1
2017-09-28T14:12:14.027Z,19.1
2017-09-28T14:13:13.344Z,19.1
2017-09-28T14:14:12.799Z,19.1
2017-09-28T14:15:11.990Z,19
2017-09-28T14:16:11.230Z,19
2017-09-28T14:17:11.052Z,19
2017-09-28T14:18:09.942Z,19
2017-09-28T14:19:09.249Z,19
2017-09-28T14:20:08.564Z,19
2017-09-28T14:21:08.007Z,19
2017-09-28T14:22:07.709Z,19
2017-09-28T14:23:06.698Z,19
2017-09-28T14:24:06.009Z,19
2017-09-28T14:25:05.459Z,19
2017-09-28T14:26:04.900Z,19
2017-09-28T14:27:04.100Z,18.9
2017-09-28T14:28:03.421Z,18.9
2017-09-28T14:28:34.228Z,18.9
2017-09-28T14:29:04.861Z,18.9
2017-09-28T14:29:35.488Z,18.9
2017-09-28T14:30:06.247Z,18.9
2017-09-28T14:30:36.426Z,18.9
2017-09-28T14:32:00.525Z,18.9
2017-09-28T14:33:00.017Z,18.9
2017-09-28T14:33:59.201Z,18.9
2017-09-28T14:34:59.195Z,18.9
2017-09-28T14:35:58.132Z,18.9
2017-09-28T14:36:57.499Z,18.9
2017-09-28T14:37:57.058Z,18.9
2017-09-28T14:38:56.127Z,18.9
2017-09-28T14:39:26.625Z,18.9
2017-09-28T14:39:57.258Z,18.9
2017-09-28T14:40:27.760Z,18.9
2017-09-28T14:40:58.386Z,18.8
2017-09-28T14:41:28.640Z,18.8
2017-09-28T14:42:53.627Z,18.8
2017-09-28T14:43:52.941Z,18.8
2017-09-28T14:44:52.201Z,18.8
2017-09-28T14:45:51.244Z,18.8
2017-09-28T14:46:51.073Z,18.8
2017-09-28T14:47:50.516Z,18.8
2017-09-28T14:49:48.862Z,18.8
2017-09-28T14:50:48.093Z,18.8
2017-09-28T14:51:47.513Z,18.7
2017-09-28T14:52:47.095Z,18.7
2017-09-28T14:54:45.447Z,18.7
2017-09-28T14:55:45.019Z,18.7
2017-09-28T14:56:44.220Z,18.7
2017-09-28T14:57:43.533Z,18.7
2017-09-28T14:58:42.767Z,18.7
2017-09-28T14:59:42.210Z,18.7
2017-09-28T15:00:41.837Z,18.7
2017-09-28T15:01:41.161Z,18.7
2017-09-28T15:02:39.894Z,18.7
2017-09-28T15:03:39.833Z,18.6
2017-09-28T15:04:38.919Z,18.6
2017-09-28T15:05:38.111Z,18.6
2017-09-28T15:06:37.861Z,18.6
2017-09-28T15:07:36.924Z,18.6
2017-09-28T15:10:35.021Z,18.6
2017-09-28T15:11:34.347Z,18.6
2017-09-28T15:12:33.406Z,18.6
2017-09-28T15:13:32.980Z,18.6
2017-09-28T15:14:32.173Z,18.7
2017-09-28T15:15:31.496Z,18.7
2017-09-28T15:17:30.323Z,18.7
2017-09-28T15:18:29.392Z,18.8
2017-09-28T15:19:28.711Z,18.8
2017-09-28T15:20:28.277Z,18.8
2017-09-28T15:21:27.786Z,18.9
2017-09-28T15:22:27.103Z,18.9
2017-09-28T15:23:26.129Z,18.9
2017-09-28T15:24:25.448Z,18.9
2017-09-28T15:26:24.410Z,18.9
2017-09-28T15:27:23.479Z,19
2017-09-28T15:28:22.792Z,19
2017-09-28T15:29:22.389Z,19
2017-09-28T15:30:21.465Z,19
2017-09-28T15:32:20.171Z,19
2017-09-28T15:33:19.747Z,19
2017-09-28T15:34:18.934Z,19
2017-09-28T15:35:18.148Z,19
2017-09-28T15:36:17.710Z,19
2017-09-28T15:37:16.810Z,19
2017-09-28T15:37:47.313Z,19
2017-09-28T15:38:18.072Z,19
2017-09-28T15:38:48.319Z,19
2017-09-28T15:39:18.706Z,19
2017-09-28T15:40:14.879Z,19
2017-09-28T15:42:13.249Z,18.9
2017-09-28T15:43:12.861Z,19
2017-09-28T15:44:12.175Z,19
2017-09-28T15:45:11.746Z,18.9
2017-09-28T15:47:10.566Z,18.9
2017-09-28T15:48:09.760Z,18.9
2017-09-28T15:49:09.075Z,18.9
2017-09-28T15:50:08.187Z,18.9
2017-09-28T15:51:07.380Z,18.9
2017-09-28T15:52:06.806Z,18.9
2017-09-28T15:53:06.377Z,18.8
2017-09-28T15:54:05.567Z,18.8
2017-09-28T15:55:04.759Z,18.8
2017-09-28T15:56:04.090Z,18.8
2017-09-28T15:57:03.403Z,18.8
2017-09-28T15:58:02.839Z,18.8
2017-09-28T15:59:02.149Z,18.8
2017-09-28T16:00:01.464Z,18.7
2017-09-28T16:01:00.906Z,18.7
2017-09-28T16:02:00.091Z,18.7
2017-09-28T16:02:59.288Z,18.7
2017-09-28T16:03:58.979Z,18.7
2017-09-28T16:04:58.040Z,18.7
2017-09-28T16:05:57.358Z,18.6
2017-09-28T16:11:53.230Z,18.5
2017-09-28T16:13:52.305Z,18.4
2017-09-28T16:14:51.245Z,18.4
2017-09-28T16:15:50.565Z,18.4
2017-09-28T16:16:50.127Z,18.4
2017-09-28T16:17:49.708Z,18.3
2017-09-28T16:18:20.085Z,18.3
2017-09-28T16:19:48.035Z,18.3
2017-09-28T16:20:18.466Z,18.3